sensor_id;sensor_type;location;lat;lon;timestamp;P1;durP1;ratioP1;P2;durP2;ratioP2
79137;SDS011;68544;45.566;10.238;2023-05-02T00:01:53;2.23;;;2.00;;
79137;SDS011;68544;45.566;10.238;2023-05-02T00:04:18;3.90;;;2.50;;
79137;SDS011;68544;45.566;10.238;2023-05-02T00:06:44;4.07;;;1.63;;
79137;SDS011;68544;45.566;10.238;2023-05-02T00:09:10;3.08;;;2.00;;
79137;SDS011;68544;45.566;10.238;2023-05-02T00:11:36;3.40;;;1.92;;
79137;SDS011;68544;45.566;10.238;2023-05-02T00:14:01;2.57;;;1.90;;
79137;SDS011;68544;45.566;10.238;2023-05-02T00:16:27;2.53;;;2.10;;
79137;SDS011;68544;45.566;10.238;2023-05-02T00:18:52;2.43;;;1.90;;
79137;SDS011;68544;45.566;10.238;2023-05-02T00:21:17;2.50;;;1.80;;
79137;SDS011;68544;45.566;10.238;2023-05-02T00:23:42;1.47;;;1.33;;
79137;SDS011;68544;45.566;10.238;2023-05-02T00:26:08;2.30;;;1.60;;
79137;SDS011;68544;45.566;10.238;2023-05-02T00:28:34;2.70;;;1.27;;
79137;SDS011;68544;45.566;10.238;2023-05-02T00:30:59;1.80;;;1.50;;
79137;SDS011;68544;45.566;10.238;2023-05-02T00:33:25;1.60;;;1.30;;
79137;SDS011;68544;45.566;10.238;2023-05-02T00:35:50;2.43;;;1.40;;
79137;SDS011;68544;45.566;10.238;2023-05-02T00:38:16;2.10;;;1.30;;
79137;SDS011;68544;45.566;10.238;2023-05-02T00:40:45;1.70;;;1.57;;
79137;SDS011;68544;45.566;10.238;2023-05-02T00:43:11;2.80;;;1.55;;
79137;SDS011;68544;45.566;10.238;2023-05-02T00:45:37;2.35;;;1.83;;
79137;SDS011;68544;45.566;10.238;2023-05-02T00:48:05;3.20;;;2.53;;
79137;SDS011;68544;45.566;10.238;2023-05-02T00:50:32;2.45;;;1.38;;
79137;SDS011;68544;45.566;10.238;2023-05-02T00:52:59;1.98;;;1.30;;
79137;SDS011;68544;45.566;10.238;2023-05-02T00:55:25;1.95;;;1.35;;
79137;SDS011;68544;45.566;10.238;2023-05-02T00:57:51;1.50;;;1.00;;
79137;SDS011;68544;45.566;10.238;2023-05-02T01:00:17;1.88;;;1.52;;
79137;SDS011;68544;45.566;10.238;2023-05-02T01:02:47;1.63;;;1.00;;
79137;SDS011;68544;45.566;10.238;2023-05-02T01:05:20;1.75;;;1.10;;
79137;SDS011;68544;45.566;10.238;2023-05-02T01:13:19;2.47;;;1.10;;
79137;SDS011;68544;45.566;10.238;2023-05-02T01:15:50;1.60;;;0.97;;
79137;SDS011;68544;45.566;10.238;2023-05-02T01:18:17;1.58;;;1.00;;
79137;SDS011;68544;45.566;10.238;2023-05-02T01:20:49;1.85;;;1.20;;
79137;SDS011;68544;45.566;10.238;2023-05-02T01:23:24;1.60;;;1.05;;
79137;SDS011;68544;45.566;10.238;2023-05-02T01:26:25;1.63;;;1.30;;
79137;SDS011;68544;45.566;10.238;2023-05-02T01:28:58;1.90;;;1.20;;
79137;SDS011;68544;45.566;10.238;2023-05-02T01:31:26;1.80;;;1.40;;
79137;SDS011;68544;45.566;10.238;2023-05-02T01:33:55;3.50;;;1.40;;
79137;SDS011;68544;45.566;10.238;2023-05-02T01:36:24;2.05;;;1.30;;
79137;SDS011;68544;45.566;10.238;2023-05-02T01:38:51;1.83;;;1.40;;
79137;SDS011;68544;45.566;10.238;2023-05-02T01:41:18;2.20;;;1.40;;
79137;SDS011;68544;45.566;10.238;2023-05-02T01:43:45;3.03;;;1.73;;
79137;SDS011;68544;45.566;10.238;2023-05-02T01:46:12;1.10;;;0.85;;
79137;SDS011;68544;45.566;10.238;2023-05-02T01:48:39;1.83;;;1.50;;
79137;SDS011;68544;45.566;10.238;2023-05-02T01:51:07;2.05;;;1.85;;
79137;SDS011;68544;45.566;10.238;2023-05-02T01:53:35;2.33;;;1.20;;
79137;SDS011;68544;45.566;10.238;2023-05-02T01:56:03;1.67;;;1.13;;
79137;SDS011;68544;45.566;10.238;2023-05-02T01:58:30;1.98;;;1.40;;
79137;SDS011;68544;45.566;10.238;2023-05-02T02:00:57;2.35;;;1.65;;
79137;SDS011;68544;45.566;10.238;2023-05-02T02:03:24;3.97;;;1.63;;
79137;SDS011;68544;45.566;10.238;2023-05-02T02:05:51;2.72;;;1.42;;
79137;SDS011;68544;45.566;10.238;2023-05-02T02:08:19;2.88;;;1.30;;
79137;SDS011;68544;45.566;10.238;2023-05-02T02:10:45;2.57;;;1.30;;
79137;SDS011;68544;45.566;10.238;2023-05-02T02:13:17;1.48;;;1.15;;
79137;SDS011;68544;45.566;10.238;2023-05-02T02:15:49;2.35;;;1.65;;
79137;SDS011;68544;45.566;10.238;2023-05-02T02:18:18;1.70;;;1.30;;
79137;SDS011;68544;45.566;10.238;2023-05-02T02:20:47;2.00;;;1.50;;
79137;SDS011;68544;45.566;10.238;2023-05-02T02:23:14;3.00;;;1.30;;
79137;SDS011;68544;45.566;10.238;2023-05-02T02:25:41;1.58;;;1.15;;
79137;SDS011;68544;45.566;10.238;2023-05-02T02:28:09;2.03;;;1.40;;
79137;SDS011;68544;45.566;10.238;2023-05-02T02:30:34;1.60;;;1.13;;
79137;SDS011;68544;45.566;10.238;2023-05-02T02:32:59;1.73;;;1.43;;
79137;SDS011;68544;45.566;10.238;2023-05-02T02:35:27;3.10;;;1.30;;
79137;SDS011;68544;45.566;10.238;2023-05-02T02:37:59;2.72;;;1.30;;
79137;SDS011;68544;45.566;10.238;2023-05-02T02:40:40;3.40;;;1.50;;
79137;SDS011;68544;45.566;10.238;2023-05-02T02:51:37;2.47;;;1.30;;
79137;SDS011;68544;45.566;10.238;2023-05-02T02:57:06;1.95;;;1.30;;
79137;SDS011;68544;45.566;10.238;2023-05-02T02:59:37;2.47;;;1.45;;
79137;SDS011;68544;45.566;10.238;2023-05-02T03:02:06;2.60;;;1.10;;
79137;SDS011;68544;45.566;10.238;2023-05-02T03:04:34;2.75;;;1.50;;
79137;SDS011;68544;45.566;10.238;2023-05-02T03:07:02;3.05;;;1.17;;
79137;SDS011;68544;45.566;10.238;2023-05-02T03:09:27;3.87;;;1.33;;
79137;SDS011;68544;45.566;10.238;2023-05-02T03:12:04;2.60;;;1.40;;
79137;SDS011;68544;45.566;10.238;2023-05-02T03:14:30;1.87;;;1.20;;
79137;SDS011;68544;45.566;10.238;2023-05-02T03:16:55;1.85;;;1.08;;
79137;SDS011;68544;45.566;10.238;2023-05-02T03:19:21;1.50;;;1.02;;
79137;SDS011;68544;45.566;10.238;2023-05-02T03:21:46;1.70;;;1.20;;
79137;SDS011;68544;45.566;10.238;2023-05-02T03:24:12;2.03;;;1.25;;
79137;SDS011;68544;45.566;10.238;2023-05-02T03:26:39;3.53;;;1.70;;
79137;SDS011;68544;45.566;10.238;2023-05-02T03:29:04;2.30;;;1.27;;
79137;SDS011;68544;45.566;10.238;2023-05-02T03:31:29;1.90;;;1.20;;
79137;SDS011;68544;45.566;10.238;2023-05-02T03:33:54;2.47;;;1.33;;
79137;SDS011;68544;45.566;10.238;2023-05-02T03:36:20;2.47;;;1.33;;
79137;SDS011;68544;45.566;10.238;2023-05-02T03:38:46;2.22;;;1.27;;
79137;SDS011;68544;45.566;10.238;2023-05-02T03:41:11;1.40;;;1.20;;
79137;SDS011;68544;45.566;10.238;2023-05-02T03:43:36;2.50;;;1.17;;
79137;SDS011;68544;45.566;10.238;2023-05-02T03:46:05;1.97;;;1.00;;
79137;SDS011;68544;45.566;10.238;2023-05-02T03:48:33;2.40;;;1.20;;
79137;SDS011;68544;45.566;10.238;2023-05-02T03:51:00;2.65;;;1.17;;
79137;SDS011;68544;45.566;10.238;2023-05-02T03:53:27;2.65;;;1.40;;
79137;SDS011;68544;45.566;10.238;2023-05-02T03:55:54;2.15;;;1.27;;
79137;SDS011;68544;45.566;10.238;2023-05-02T03:58:19;1.43;;;1.10;;
79137;SDS011;68544;45.566;10.238;2023-05-02T04:00:45;3.95;;;1.00;;
79137;SDS011;68544;45.566;10.238;2023-05-02T04:03:10;3.77;;;1.30;;
79137;SDS011;68544;45.566;10.238;2023-05-02T04:05:35;1.70;;;1.00;;
79137;SDS011;68544;45.566;10.238;2023-05-02T04:08:01;1.40;;;0.90;;
79137;SDS011;68544;45.566;10.238;2023-05-02T04:10:27;4.03;;;0.80;;
79137;SDS011;68544;45.566;10.238;2023-05-02T04:12:52;2.13;;;0.70;;
79137;SDS011;68544;45.566;10.238;2023-05-02T04:15:17;2.20;;;0.87;;
79137;SDS011;68544;45.566;10.238;2023-05-02T04:17:43;1.13;;;0.80;;
79137;SDS011;68544;45.566;10.238;2023-05-02T04:20:08;1.93;;;0.80;;
79137;SDS011;68544;45.566;10.238;2023-05-02T04:25:00;4.18;;;0.90;;
79137;SDS011;68544;45.566;10.238;2023-05-02T04:27:25;0.80;;;0.60;;
79137;SDS011;68544;45.566;10.238;2023-05-02T04:29:51;2.22;;;0.80;;
79137;SDS011;68544;45.566;10.238;2023-05-02T04:32:17;3.10;;;0.90;;
79137;SDS011;68544;45.566;10.238;2023-05-02T04:34:42;3.33;;;1.00;;
79137;SDS011;68544;45.566;10.238;2023-05-02T04:37:08;2.67;;;0.90;;
79137;SDS011;68544;45.566;10.238;2023-05-02T04:39:33;2.03;;;0.83;;
79137;SDS011;68544;45.566;10.238;2023-05-02T04:41:59;1.40;;;1.10;;
79137;SDS011;68544;45.566;10.238;2023-05-02T04:46:50;2.15;;;0.70;;
79137;SDS011;68544;45.566;10.238;2023-05-02T04:49:15;1.60;;;0.93;;
79137;SDS011;68544;45.566;10.238;2023-05-02T04:51:41;2.10;;;0.93;;
79137;SDS011;68544;45.566;10.238;2023-05-02T04:54:06;1.67;;;0.90;;
79137;SDS011;68544;45.566;10.238;2023-05-02T04:56:32;1.80;;;0.93;;
79137;SDS011;68544;45.566;10.238;2023-05-02T04:58:57;1.97;;;1.10;;
79137;SDS011;68544;45.566;10.238;2023-05-02T05:01:23;1.50;;;1.20;;
79137;SDS011;68544;45.566;10.238;2023-05-02T05:03:51;1.92;;;1.00;;
79137;SDS011;68544;45.566;10.238;2023-05-02T05:06:17;1.87;;;0.97;;
79137;SDS011;68544;45.566;10.238;2023-05-02T05:08:43;2.42;;;0.98;;
79137;SDS011;68544;45.566;10.238;2023-05-02T05:13:34;1.70;;;1.10;;
79137;SDS011;68544;45.566;10.238;2023-05-02T05:16:00;1.50;;;0.90;;
79137;SDS011;68544;45.566;10.238;2023-05-02T05:18:26;2.78;;;1.10;;
79137;SDS011;68544;45.566;10.238;2023-05-02T05:20:51;2.33;;;1.23;;
79137;SDS011;68544;45.566;10.238;2023-05-02T05:23:16;2.60;;;1.20;;
79137;SDS011;68544;45.566;10.238;2023-05-02T05:25:42;2.43;;;1.20;;
79137;SDS011;68544;45.566;10.238;2023-05-02T05:28:07;5.80;;;0.97;;
79137;SDS011;68544;45.566;10.238;2023-05-02T05:30:32;2.17;;;1.00;;
79137;SDS011;68544;45.566;10.238;2023-05-02T05:32:58;2.10;;;1.00;;
79137;SDS011;68544;45.566;10.238;2023-05-02T05:35:24;2.77;;;1.20;;
79137;SDS011;68544;45.566;10.238;2023-05-02T05:37:49;2.10;;;1.38;;
79137;SDS011;68544;45.566;10.238;2023-05-02T05:40:15;1.80;;;1.20;;
79137;SDS011;68544;45.566;10.238;2023-05-02T05:42:41;2.85;;;1.40;;
79137;SDS011;68544;45.566;10.238;2023-05-02T05:45:06;2.20;;;1.23;;
79137;SDS011;68544;45.566;10.238;2023-05-02T05:49:58;2.75;;;1.50;;
79137;SDS011;68544;45.566;10.238;2023-05-02T05:52:23;2.63;;;1.50;;
79137;SDS011;68544;45.566;10.238;2023-05-02T05:54:52;3.37;;;1.63;;
79137;SDS011;68544;45.566;10.238;2023-05-02T05:57:19;3.38;;;2.10;;
79137;SDS011;68544;45.566;10.238;2023-05-02T05:59:45;1.75;;;1.02;;
79137;SDS011;68544;45.566;10.238;2023-05-02T06:02:10;3.07;;;1.00;;
79137;SDS011;68544;45.566;10.238;2023-05-02T06:04:35;2.70;;;0.83;;
79137;SDS011;68544;45.566;10.238;2023-05-02T06:07:01;1.97;;;0.93;;
79137;SDS011;68544;45.566;10.238;2023-05-02T06:09:26;1.77;;;1.00;;
79137;SDS011;68544;45.566;10.238;2023-05-02T06:11:51;1.83;;;1.03;;
79137;SDS011;68544;45.566;10.238;2023-05-02T06:14:17;3.60;;;1.43;;
79137;SDS011;68544;45.566;10.238;2023-05-02T06:16:42;3.10;;;1.50;;
79137;SDS011;68544;45.566;10.238;2023-05-02T06:19:07;2.73;;;1.20;;
79137;SDS011;68544;45.566;10.238;2023-05-02T06:21:35;5.07;;;1.50;;
79137;SDS011;68544;45.566;10.238;2023-05-02T06:24:01;2.80;;;1.50;;
79137;SDS011;68544;45.566;10.238;2023-05-02T06:26:26;2.80;;;1.60;;
79137;SDS011;68544;45.566;10.238;2023-05-02T06:28:53;5.07;;;2.20;;
79137;SDS011;68544;45.566;10.238;2023-05-02T06:31:18;3.53;;;1.60;;
79137;SDS011;68544;45.566;10.238;2023-05-02T06:33:44;2.20;;;1.30;;
79137;SDS011;68544;45.566;10.238;2023-05-02T06:36:09;1.50;;;0.90;;
79137;SDS011;68544;45.566;10.238;2023-05-02T06:38:34;1.40;;;0.83;;
79137;SDS011;68544;45.566;10.238;2023-05-02T06:41:00;1.27;;;0.77;;
79137;SDS011;68544;45.566;10.238;2023-05-02T06:43:25;1.17;;;0.70;;
79137;SDS011;68544;45.566;10.238;2023-05-02T06:45:54;1.97;;;0.70;;
79137;SDS011;68544;45.566;10.238;2023-05-02T06:48:20;1.85;;;0.75;;
79137;SDS011;68544;45.566;10.238;2023-05-02T06:50:46;1.98;;;0.70;;
79137;SDS011;68544;45.566;10.238;2023-05-02T06:53:11;1.15;;;0.68;;
79137;SDS011;68544;45.566;10.238;2023-05-02T06:55:37;2.00;;;0.90;;
79137;SDS011;68544;45.566;10.238;2023-05-02T06:58:02;1.90;;;1.13;;
79137;SDS011;68544;45.566;10.238;2023-05-02T07:00:27;3.07;;;1.33;;
79137;SDS011;68544;45.566;10.238;2023-05-02T07:02:53;3.53;;;1.20;;
79137;SDS011;68544;45.566;10.238;2023-05-02T07:05:18;4.77;;;1.83;;
79137;SDS011;68544;45.566;10.238;2023-05-02T07:07:43;4.53;;;1.70;;
79137;SDS011;68544;45.566;10.238;2023-05-02T07:10:09;5.43;;;1.50;;
79137;SDS011;68544;45.566;10.238;2023-05-02T07:12:35;2.65;;;1.85;;
79137;SDS011;68544;45.566;10.238;2023-05-02T07:15:03;3.33;;;2.00;;
79137;SDS011;68544;45.566;10.238;2023-05-02T07:17:29;3.33;;;1.80;;
79137;SDS011;68544;45.566;10.238;2023-05-02T07:19:55;2.97;;;2.23;;
79137;SDS011;68544;45.566;10.238;2023-05-02T07:22:20;2.50;;;1.60;;
79137;SDS011;68544;45.566;10.238;2023-05-02T07:24:45;2.90;;;1.80;;
79137;SDS011;68544;45.566;10.238;2023-05-02T07:27:11;6.80;;;1.67;;
79137;SDS011;68544;45.566;10.238;2023-05-02T07:29:37;2.63;;;1.50;;
79137;SDS011;68544;45.566;10.238;2023-05-02T07:32:03;3.35;;;1.50;;
79137;SDS011;68544;45.566;10.238;2023-05-02T07:34:29;4.13;;;1.50;;
79137;SDS011;68544;45.566;10.238;2023-05-02T07:36:54;2.45;;;1.30;;
79137;SDS011;68544;45.566;10.238;2023-05-02T07:39:20;3.80;;;1.15;;
79137;SDS011;68544;45.566;10.238;2023-05-02T07:44:14;3.47;;;1.40;;
79137;SDS011;68544;45.566;10.238;2023-05-02T07:46:40;2.60;;;1.20;;
79137;SDS011;68544;45.566;10.238;2023-05-02T07:49:06;4.07;;;1.20;;
79137;SDS011;68544;45.566;10.238;2023-05-02T07:51:31;3.77;;;1.70;;
79137;SDS011;68544;45.566;10.238;2023-05-02T07:53:56;2.33;;;1.33;;
79137;SDS011;68544;45.566;10.238;2023-05-02T07:56:26;2.60;;;1.10;;
79137;SDS011;68544;45.566;10.238;2023-05-02T07:58:51;2.20;;;1.25;;
79137;SDS011;68544;45.566;10.238;2023-05-02T08:01:17;18.10;;;11.93;;
79137;SDS011;68544;45.566;10.238;2023-05-02T08:03:43;2.80;;;1.95;;
79137;SDS011;68544;45.566;10.238;2023-05-02T08:06:09;2.10;;;1.40;;
79137;SDS011;68544;45.566;10.238;2023-05-02T08:08:36;2.80;;;1.10;;
79137;SDS011;68544;45.566;10.238;2023-05-02T08:11:01;2.88;;;1.27;;
79137;SDS011;68544;45.566;10.238;2023-05-02T08:13:26;1.60;;;1.13;;
79137;SDS011;68544;45.566;10.238;2023-05-02T08:15:52;3.25;;;0.95;;
79137;SDS011;68544;45.566;10.238;2023-05-02T08:18:25;2.55;;;0.90;;
79137;SDS011;68544;45.566;10.238;2023-05-02T08:20:51;2.95;;;0.90;;
79137;SDS011;68544;45.566;10.238;2023-05-02T08:23:17;2.30;;;1.00;;
79137;SDS011;68544;45.566;10.238;2023-05-02T08:25:42;2.40;;;1.20;;
79137;SDS011;68544;45.566;10.238;2023-05-02T08:28:07;1.93;;;1.00;;
79137;SDS011;68544;45.566;10.238;2023-05-02T08:30:33;2.70;;;1.13;;
79137;SDS011;68544;45.566;10.238;2023-05-02T08:32:58;2.60;;;1.20;;
79137;SDS011;68544;45.566;10.238;2023-05-02T08:35:23;1.83;;;1.00;;
79137;SDS011;68544;45.566;10.238;2023-05-02T08:37:49;1.27;;;0.70;;
79137;SDS011;68544;45.566;10.238;2023-05-02T08:40:14;3.17;;;0.60;;
79137;SDS011;68544;45.566;10.238;2023-05-02T08:42:42;3.25;;;0.88;;
79137;SDS011;68544;45.566;10.238;2023-05-02T08:45:08;1.85;;;0.90;;
79137;SDS011;68544;45.566;10.238;2023-05-02T08:47:37;2.00;;;0.77;;
79137;SDS011;68544;45.566;10.238;2023-05-02T08:50:04;1.42;;;0.77;;
79137;SDS011;68544;45.566;10.238;2023-05-02T08:52:31;1.38;;;0.70;;
79137;SDS011;68544;45.566;10.238;2023-05-02T08:57:24;2.35;;;1.40;;
79137;SDS011;68544;45.566;10.238;2023-05-02T08:59:52;1.95;;;1.00;;
79137;SDS011;68544;45.566;10.238;2023-05-02T09:05:22;3.58;;;0.70;;
79137;SDS011;68544;45.566;10.238;2023-05-02T09:07:49;2.70;;;0.82;;
79137;SDS011;68544;45.566;10.238;2023-05-02T09:10:15;4.03;;;0.90;;
79137;SDS011;68544;45.566;10.238;2023-05-02T09:12:41;2.28;;;0.98;;
79137;SDS011;68544;45.566;10.238;2023-05-02T09:15:10;1.93;;;1.00;;
79137;SDS011;68544;45.566;10.238;2023-05-02T09:17:40;1.70;;;0.80;;
79137;SDS011;68544;45.566;10.238;2023-05-02T09:20:07;3.97;;;0.80;;
79137;SDS011;68544;45.566;10.238;2023-05-02T09:24:59;2.83;;;0.82;;
79137;SDS011;68544;45.566;10.238;2023-05-02T09:27:25;2.58;;;0.73;;
79137;SDS011;68544;45.566;10.238;2023-05-02T09:29:51;2.40;;;0.80;;
79137;SDS011;68544;45.566;10.238;2023-05-02T09:32:17;2.63;;;0.73;;
79137;SDS011;68544;45.566;10.238;2023-05-02T09:35:02;1.63;;;0.97;;
79137;SDS011;68544;45.566;10.238;2023-05-02T09:37:34;2.03;;;1.27;;
79137;SDS011;68544;45.566;10.238;2023-05-02T09:40:06;7.00;;;1.70;;
79137;SDS011;68544;45.566;10.238;2023-05-02T09:42:33;3.88;;;1.90;;
79137;SDS011;68544;45.566;10.238;2023-05-02T09:44:58;4.72;;;2.35;;
79137;SDS011;68544;45.566;10.238;2023-05-02T09:47:24;5.33;;;2.20;;
79137;SDS011;68544;45.566;10.238;2023-05-02T09:49:52;5.13;;;2.60;;
79137;SDS011;68544;45.566;10.238;2023-05-02T09:52:18;3.53;;;2.10;;
79137;SDS011;68544;45.566;10.238;2023-05-02T09:54:47;2.83;;;2.10;;
79137;SDS011;68544;45.566;10.238;2023-05-02T09:57:16;5.28;;;2.03;;
79137;SDS011;68544;45.566;10.238;2023-05-02T09:59:52;5.43;;;2.20;;
79137;SDS011;68544;45.566;10.238;2023-05-02T10:02:21;4.53;;;2.22;;
79137;SDS011;68544;45.566;10.238;2023-05-02T10:04:48;3.33;;;2.10;;
79137;SDS011;68544;45.566;10.238;2023-05-02T10:07:14;4.25;;;2.00;;
79137;SDS011;68544;45.566;10.238;2023-05-02T10:09:42;4.40;;;1.80;;
79137;SDS011;68544;45.566;10.238;2023-05-02T10:12:09;2.85;;;1.80;;
79137;SDS011;68544;45.566;10.238;2023-05-02T10:14:39;2.78;;;1.92;;
79137;SDS011;68544;45.566;10.238;2023-05-02T10:17:11;2.55;;;2.03;;
79137;SDS011;68544;45.566;10.238;2023-05-02T10:22:14;3.47;;;1.98;;
79137;SDS011;68544;45.566;10.238;2023-05-02T10:24:43;3.80;;;1.80;;
79137;SDS011;68544;45.566;10.238;2023-05-02T10:27:10;4.13;;;2.05;;
79137;SDS011;68544;45.566;10.238;2023-05-02T10:29:36;3.10;;;1.70;;
79137;SDS011;68544;45.566;10.238;2023-05-02T10:32:03;2.42;;;2.00;;
79137;SDS011;68544;45.566;10.238;2023-05-02T10:34:31;4.03;;;1.80;;
79137;SDS011;68544;45.566;10.238;2023-05-02T10:36:57;3.25;;;2.20;;
79137;SDS011;68544;45.566;10.238;2023-05-02T10:39:26;2.60;;;2.03;;
79137;SDS011;68544;45.566;10.238;2023-05-02T10:41:52;4.38;;;2.38;;
79137;SDS011;68544;45.566;10.238;2023-05-02T10:44:36;2.42;;;1.80;;
79137;SDS011;68544;45.566;10.238;2023-05-02T10:47:18;2.80;;;2.17;;
79137;SDS011;68544;45.566;10.238;2023-05-02T10:49:55;3.38;;;1.77;;
79137;SDS011;68544;45.566;10.238;2023-05-02T11:00:21;2.70;;;1.95;;
79137;SDS011;68544;45.566;10.238;2023-05-02T11:02:48;3.55;;;2.10;;
79137;SDS011;68544;45.566;10.238;2023-05-02T11:05:14;5.00;;;2.90;;
79137;SDS011;68544;45.566;10.238;2023-05-02T11:07:39;3.70;;;2.77;;
79137;SDS011;68544;45.566;10.238;2023-05-02T11:12:45;3.13;;;2.30;;
79137;SDS011;68544;45.566;10.238;2023-05-02T11:15:14;3.75;;;2.13;;
79137;SDS011;68544;45.566;10.238;2023-05-02T11:18:00;5.13;;;2.30;;
79137;SDS011;68544;45.566;10.238;2023-05-02T11:20:27;4.00;;;2.35;;
79137;SDS011;68544;45.566;10.238;2023-05-02T11:22:54;4.32;;;2.58;;
79137;SDS011;68544;45.566;10.238;2023-05-02T11:25:28;3.63;;;2.08;;
79137;SDS011;68544;45.566;10.238;2023-05-02T11:27:54;6.88;;;2.30;;
79137;SDS011;68544;45.566;10.238;2023-05-02T11:30:42;2.70;;;2.05;;
79137;SDS011;68544;45.566;10.238;2023-05-02T11:33:10;2.40;;;2.00;;
79137;SDS011;68544;45.566;10.238;2023-05-02T11:35:36;5.57;;;2.30;;
79137;SDS011;68544;45.566;10.238;2023-05-02T11:38:10;3.58;;;2.30;;
79137;SDS011;68544;45.566;10.238;2023-05-02T11:40:36;5.32;;;2.38;;
79137;SDS011;68544;45.566;10.238;2023-05-02T11:43:11;2.47;;;2.03;;
79137;SDS011;68544;45.566;10.238;2023-05-02T11:45:40;4.90;;;2.60;;
79137;SDS011;68544;45.566;10.238;2023-05-02T11:48:06;4.85;;;2.60;;
79137;SDS011;68544;45.566;10.238;2023-05-02T11:50:33;3.55;;;2.20;;
79137;SDS011;68544;45.566;10.238;2023-05-02T11:53:07;5.68;;;2.35;;
79137;SDS011;68544;45.566;10.238;2023-05-02T11:55:35;4.25;;;2.30;;
79137;SDS011;68544;45.566;10.238;2023-05-02T11:58:00;3.57;;;2.20;;
79137;SDS011;68544;45.566;10.238;2023-05-02T12:00:26;5.27;;;2.50;;
79137;SDS011;68544;45.566;10.238;2023-05-02T12:02:52;4.88;;;2.47;;
79137;SDS011;68544;45.566;10.238;2023-05-02T12:05:25;4.80;;;2.60;;
79137;SDS011;68544;45.566;10.238;2023-05-02T12:07:55;3.28;;;2.42;;
79137;SDS011;68544;45.566;10.238;2023-05-02T12:10:20;4.93;;;2.50;;
79137;SDS011;68544;45.566;10.238;2023-05-02T12:12:46;2.83;;;2.53;;
79137;SDS011;68544;45.566;10.238;2023-05-02T12:15:11;3.00;;;2.03;;
79137;SDS011;68544;45.566;10.238;2023-05-02T12:17:41;5.25;;;2.60;;
79137;SDS011;68544;45.566;10.238;2023-05-02T12:20:13;4.47;;;2.25;;
79137;SDS011;68544;45.566;10.238;2023-05-02T12:22:39;4.07;;;2.30;;
79137;SDS011;68544;45.566;10.238;2023-05-02T12:25:05;5.57;;;2.53;;
79137;SDS011;68544;45.566;10.238;2023-05-02T12:29:57;5.18;;;2.90;;
79137;SDS011;68544;45.566;10.238;2023-05-02T12:32:29;4.55;;;2.53;;
79137;SDS011;68544;45.566;10.238;2023-05-02T12:34:57;4.07;;;2.50;;
79137;SDS011;68544;45.566;10.238;2023-05-02T12:39:49;4.88;;;2.75;;
79137;SDS011;68544;45.566;10.238;2023-05-02T12:42:15;4.20;;;2.38;;
79137;SDS011;68544;45.566;10.238;2023-05-02T12:44:42;3.25;;;2.75;;
79137;SDS011;68544;45.566;10.238;2023-05-02T12:47:10;4.05;;;2.20;;
79137;SDS011;68544;45.566;10.238;2023-05-02T12:49:52;4.55;;;2.42;;
79137;SDS011;68544;45.566;10.238;2023-05-02T12:52:21;3.65;;;2.50;;
79137;SDS011;68544;45.566;10.238;2023-05-02T12:57:42;3.35;;;3.00;;
79137;SDS011;68544;45.566;10.238;2023-05-02T13:00:07;4.47;;;2.90;;
79137;SDS011;68544;45.566;10.238;2023-05-02T13:04:59;3.00;;;2.60;;
79137;SDS011;68544;45.566;10.238;2023-05-02T13:07:24;4.88;;;2.85;;
79137;SDS011;68544;45.566;10.238;2023-05-02T13:09:49;3.93;;;2.70;;
79137;SDS011;68544;45.566;10.238;2023-05-02T13:12:15;5.78;;;2.67;;
79137;SDS011;68544;45.566;10.238;2023-05-02T13:14:40;3.50;;;2.63;;
79137;SDS011;68544;45.566;10.238;2023-05-02T13:17:05;5.20;;;2.97;;
79137;SDS011;68544;45.566;10.238;2023-05-02T13:19:32;7.80;;;2.95;;
79137;SDS011;68544;45.566;10.238;2023-05-02T13:21:58;5.05;;;2.90;;
79137;SDS011;68544;45.566;10.238;2023-05-02T13:24:23;4.73;;;3.30;;
79137;SDS011;68544;45.566;10.238;2023-05-02T13:26:49;5.80;;;3.25;;
79137;SDS011;68544;45.566;10.238;2023-05-02T13:29:14;3.17;;;2.88;;
79137;SDS011;68544;45.566;10.238;2023-05-02T13:31:40;6.20;;;3.50;;
79137;SDS011;68544;45.566;10.238;2023-05-02T13:34:05;3.83;;;2.83;;
79137;SDS011;68544;45.566;10.238;2023-05-02T13:36:31;2.83;;;2.33;;
79137;SDS011;68544;45.566;10.238;2023-05-02T13:38:56;3.27;;;2.97;;
79137;SDS011;68544;45.566;10.238;2023-05-02T13:41:21;3.60;;;2.30;;
79137;SDS011;68544;45.566;10.238;2023-05-02T13:43:48;3.38;;;2.53;;
79137;SDS011;68544;45.566;10.238;2023-05-02T13:46:13;4.13;;;2.13;;
79137;SDS011;68544;45.566;10.238;2023-05-02T13:48:39;3.17;;;1.70;;
79137;SDS011;68544;45.566;10.238;2023-05-02T13:51:04;3.47;;;1.70;;
79137;SDS011;68544;45.566;10.238;2023-05-02T13:53:29;3.87;;;2.40;;
79137;SDS011;68544;45.566;10.238;2023-05-02T13:55:55;3.30;;;2.53;;
79137;SDS011;68544;45.566;10.238;2023-05-02T13:58:20;3.77;;;2.60;;
79137;SDS011;68544;45.566;10.238;2023-05-02T14:00:45;5.32;;;2.83;;
79137;SDS011;68544;45.566;10.238;2023-05-02T14:03:11;5.68;;;3.20;;
79137;SDS011;68544;45.566;10.238;2023-05-02T14:05:37;5.22;;;3.42;;
79137;SDS011;68544;45.566;10.238;2023-05-02T14:08:07;4.47;;;3.10;;
79137;SDS011;68544;45.566;10.238;2023-05-02T14:10:33;5.75;;;3.10;;
79137;SDS011;68544;45.566;10.238;2023-05-02T14:13:00;3.88;;;3.00;;
79137;SDS011;68544;45.566;10.238;2023-05-02T14:15:25;3.63;;;3.10;;
79137;SDS011;68544;45.566;10.238;2023-05-02T14:17:51;3.90;;;3.30;;
79137;SDS011;68544;45.566;10.238;2023-05-02T14:20:16;3.65;;;2.85;;
79137;SDS011;68544;45.566;10.238;2023-05-02T14:22:41;3.50;;;2.63;;
79137;SDS011;68544;45.566;10.238;2023-05-02T14:25:07;3.87;;;3.47;;
79137;SDS011;68544;45.566;10.238;2023-05-02T14:27:32;4.35;;;2.60;;
79137;SDS011;68544;45.566;10.238;2023-05-02T14:29:57;4.50;;;3.07;;
79137;SDS011;68544;45.566;10.238;2023-05-02T14:32:23;4.33;;;2.97;;
79137;SDS011;68544;45.566;10.238;2023-05-02T14:34:48;5.05;;;3.08;;
79137;SDS011;68544;45.566;10.238;2023-05-02T14:37:13;6.60;;;2.90;;
79137;SDS011;68544;45.566;10.238;2023-05-02T14:39:39;4.47;;;3.43;;
79137;SDS011;68544;45.566;10.238;2023-05-02T14:42:06;3.83;;;3.20;;
79137;SDS011;68544;45.566;10.238;2023-05-02T14:44:31;3.72;;;3.15;;
79137;SDS011;68544;45.566;10.238;2023-05-02T14:46:56;4.63;;;3.40;;
79137;SDS011;68544;45.566;10.238;2023-05-02T14:49:22;4.00;;;3.43;;
79137;SDS011;68544;45.566;10.238;2023-05-02T14:51:49;6.63;;;4.05;;
79137;SDS011;68544;45.566;10.238;2023-05-02T14:54:14;4.63;;;3.65;;
79137;SDS011;68544;45.566;10.238;2023-05-02T14:56:41;6.30;;;4.18;;
79137;SDS011;68544;45.566;10.238;2023-05-02T14:59:06;4.13;;;3.72;;
79137;SDS011;68544;45.566;10.238;2023-05-02T15:01:32;3.95;;;3.55;;
79137;SDS011;68544;45.566;10.238;2023-05-02T15:03:57;5.00;;;3.20;;
79137;SDS011;68544;45.566;10.238;2023-05-02T15:06:22;3.77;;;3.33;;
79137;SDS011;68544;45.566;10.238;2023-05-02T15:08:47;5.40;;;2.97;;
79137;SDS011;68544;45.566;10.238;2023-05-02T15:13:40;4.18;;;3.78;;
79137;SDS011;68544;45.566;10.238;2023-05-02T15:16:05;4.88;;;3.63;;
79137;SDS011;68544;45.566;10.238;2023-05-02T15:18:31;5.15;;;3.35;;
79137;SDS011;68544;45.566;10.238;2023-05-02T15:20:56;4.65;;;3.78;;
79137;SDS011;68544;45.566;10.238;2023-05-02T15:23:22;6.10;;;3.60;;
79137;SDS011;68544;45.566;10.238;2023-05-02T15:25:47;7.07;;;3.40;;
79137;SDS011;68544;45.566;10.238;2023-05-02T15:28:12;3.60;;;3.17;;
79137;SDS011;68544;45.566;10.238;2023-05-02T15:30:38;4.40;;;3.35;;
79137;SDS011;68544;45.566;10.238;2023-05-02T15:33:03;5.82;;;3.20;;
79137;SDS011;68544;45.566;10.238;2023-05-02T15:35:29;4.18;;;3.20;;